0MA2 weather

Healthalliance Hospital-Leominster Heliport
Leominster, Massachusetts, United States

Public forecast

Using degrees Fahrenheit for public forecast. Weather courtesy of forecast.io.

METAR (pilot weather report)

Closest report is Fitchburg Municipal Airport, 0.8 nm (1.5 km) NNE. Retrieved 2019/07/18 13:52 UTC (55 minutes ago):

KFIT 181352Z AUTO VRB04KT 10SM OVC027 20/15 A3003 RMK AO2 SLP166 T02000150

TAF (pilot weather forecast)

Closest forecast is Worcester Regional Airport, 17.2 nm (31.8 km) SSW. Retrieved 2019/07/18 12:24 UTC (2 hours ago):

TAF KORH 181123Z 1812/1912 05006KT P6SM VCSH OVC006 FM181800 05006KT P6SM VCSH OVC015 FM190200 06005KT P6SM OVC015 FM190700 35004KT P6SM OVC006